メインページ
METAR-TAF:

METAR-TAF

空港 :

札幌飛行場

札幌, 日本

緯度: 43-07N, 経度: 141-23E, 海抜: 8m

現時点の気象観測

当レポートは12時間41分前の10:03(UTC)に作成
の風 5kt
気温 11°C
湿度 58%
気圧 1014 hPa
視程10km以上
高度1500ftの雲はほとんどない
高度5000ftの千切れ雲あり
高度12000ftの千切れ雲あり
弱いにわか雨

METAR: RJCO 161003Z 18005KT 9999 -SHRA FEW015 BKN050 BKN120 11/03 Q1014 RMK 1ST015 5SC050 7AC120 A2995

時間: 07:44 (22:44 UTC)


TAF: 見つかりません

4,000以上の空港の気象観測と天気予報(METAR報とTAF報)

利用可能な観測所は地図上に黄色い丸と赤い丸で示す。

丸の上にカーソルを重ねると観測所名を参照できる。

次にクリックすると気象観測と天気予報を参照できる。

マップの切り替え:黒色「×」印の緑ボタンをクリックして拡大、「-」印の緑ボタンをクリックして縮小、緑色の三角印をクリックして隣りの地図に切り替え


METAR-TAF: